Time;durP1;ratioP1;P1;durP2;ratioP2;P2;SDS_P1;SDS_P2;PMS_P1;PMS_P2;Temp;Humidity;BMP_temperature;BMP_pressure;BME280_temperature;BME280_humidity;BME280_pressure;Samples;Min_cycle;Max_cycle;Signal;HPM_P1;HPM_P2
2021/05/10 00:01:54;;;;;;;2.85;1.35;;;18.60;65.40;;;;;;5015813;28;20468;-70
2021/05/10 00:04:20;;;;;;;2.15;1.30;;;18.60;65.60;;;;;;5035728;28;20027;-70
2021/05/10 00:06:45;;;;;;;3.45;1.55;;;18.70;65.70;;;;;;5035159;28;20032;-70
2021/05/10 00:09:11;;;;;;;2.35;1.30;;;18.70;66.70;;;;;;5017933;28;20432;-70
2021/05/10 00:11:37;;;;;;;1.77;1.20;;;18.80;66.00;;;;;;5017133;28;20032;-70
2021/05/10 00:14:06;;;;;;;1.23;1.13;;;18.80;66.20;;;;;;5035635;28;20037;-70
2021/05/10 00:16:32;;;;;;;1.67;1.20;;;18.80;66.90;;;;;;5017138;28;20531;-70
2021/05/10 00:18:59;;;;;;;2.08;1.20;;;18.90;67.00;;;;;;5017943;28;20026;-70
2021/05/10 00:21:25;;;;;;;2.47;1.23;;;18.80;66.30;;;;;;5034878;28;20052;-70
2021/05/10 00:23:51;;;;;;;1.50;1.13;;;18.70;66.50;;;;;;5035291;28;20359;-69
2021/05/10 00:26:17;;;;;;;3.53;1.27;;;18.70;67.00;;;;;;5017773;28;20037;-70
2021/05/10 00:28:42;;;;;;;1.67;1.27;;;18.70;67.00;;;;;;5017082;28;20767;-70
2021/05/10 00:31:08;;;;;;;1.70;1.20;;;18.70;67.00;;;;;;5035233;28;20083;-70
2021/05/10 00:33:34;;;;;;;2.70;1.35;;;18.70;67.20;;;;;;5034655;28;20035;-70
2021/05/10 00:35:59;;;;;;;1.52;1.20;;;18.70;67.30;;;;;;5017493;28;20032;-70
2021/05/10 00:38:25;;;;;;;1.45;1.20;;;18.70;66.80;;;;;;5034595;28;20485;-70
2021/05/10 00:40:51;;;;;;;1.33;1.20;;;18.60;66.40;;;;;;5017539;28;20036;-70
2021/05/10 00:43:16;;;;;;;1.60;1.30;;;18.60;66.90;;;;;;5017313;28;20429;-70
2021/05/10 00:45:42;;;;;;;3.90;1.10;;;18.50;66.60;;;;;;5016378;28;20045;-70
2021/05/10 00:48:08;;;;;;;3.90;1.25;;;18.50;66.50;;;;;;5034859;28;20076;-70
2021/05/10 00:50:34;;;;;;;2.13;1.20;;;18.50;66.30;;;;;;5034274;28;20029;-70
2021/05/10 00:53:00;;;;;;;2.70;1.08;;;18.50;66.40;;;;;;5034919;28;20025;-70
2021/05/10 00:55:27;;;;;;;0.90;0.82;;;18.50;66.00;;;;;;5034499;28;20359;-70
2021/05/10 00:58:02;;;;;;;1.27;1.00;;;18.50;65.90;;;;;;5016961;28;20068;-70
2021/05/10 01:00:34;;;;;;;3.92;1.00;;;18.50;65.90;;;;;;5016540;28;20079;-70
2021/05/10 01:02:59;;;;;;;1.77;1.00;;;18.50;65.70;;;;;;5035094;28;20466;-70
2021/05/10 01:05:26;;;;;;;1.92;1.13;;;18.50;65.60;;;;;;5016549;28;20148;-73
2021/05/10 01:07:52;;;;;;;1.40;1.02;;;18.50;65.40;;;;;;5034732;28;20029;-70
2021/05/10 01:10:20;;;;;;;1.80;1.00;;;18.40;65.20;;;;;;5016761;28;20389;-70
2021/05/10 01:12:47;;;;;;;1.00;0.90;;;18.40;65.00;;;;;;5015933;28;20033;-70
2021/05/10 01:15:15;;;;;;;1.88;0.98;;;18.40;65.00;;;;;;5034405;28;20032;-70
2021/05/10 01:17:41;;;;;;;1.70;0.80;;;18.30;64.80;;;;;;5032556;28;20057;-70
2021/05/10 01:20:13;;;;;;;1.38;0.90;;;18.30;64.70;;;;;;5033189;28;20130;-70
2021/05/10 01:22:53;;;;;;;1.90;1.02;;;18.30;64.50;;;;;;5015999;28;20466;-70
2021/05/10 01:25:20;;;;;;;3.00;1.00;;;18.40;64.00;;;;;;5016517;28;20033;-70
2021/05/10 01:27:46;;;;;;;2.03;0.80;;;18.30;63.60;;;;;;5033651;28;20021;-70
2021/05/10 01:30:31;;;;;;;1.17;0.80;;;18.30;63.20;;;;;;5016376;28;20030;-71
2021/05/10 01:32:57;;;;;;;2.47;1.10;;;18.30;62.90;;;;;;5016646;28;20029;-70
2021/05/10 01:35:26;;;;;;;1.27;0.90;;;18.30;62.30;;;;;;5016309;28;20037;-70
2021/05/10 01:37:53;;;;;;;1.52;0.90;;;18.30;62.50;;;;;;5033741;28;20022;-70
2021/05/10 01:40:19;;;;;;;1.80;1.02;;;18.30;62.50;;;;;;5016285;28;20036;-70
2021/05/10 01:42:45;;;;;;;1.58;1.00;;;18.30;62.40;;;;;;5033118;28;20033;-70
2021/05/10 01:45:11;;;;;;;1.90;0.90;;;18.30;62.90;;;;;;5016112;28;20025;-70
2021/05/10 01:47:36;;;;;;;1.40;0.98;;;18.30;62.60;;;;;;5015107;28;20420;-70
2021/05/10 01:50:13;;;;;;;2.20;0.85;;;18.20;62.70;;;;;;5016053;28;20029;-70
2021/05/10 01:52:39;;;;;;;1.20;0.90;;;18.20;63.00;;;;;;5015636;28;20029;-70
2021/05/10 01:55:05;;;;;;;1.33;0.90;;;18.20;63.60;;;;;;5016052;28;20482;-70
2021/05/10 01:57:31;;;;;;;1.10;0.80;;;18.20;63.20;;;;;;5032869;28;20025;-70
2021/05/10 01:59:56;;;;;;;1.38;0.82;;;18.20;63.90;;;;;;5033366;28;20088;-70
2021/05/10 02:02:22;;;;;;;1.05;0.90;;;18.20;63.70;;;;;;5033915;28;20462;-70
2021/05/10 02:05:21;;;;;;;1.90;1.10;;;18.20;64.50;;;;;;5015198;28;20464;-70
2021/05/10 02:07:52;;;;;;;1.20;1.00;;;18.20;65.90;;;;;;4989398;28;20040;-70
2021/05/10 02:10:20;;;;;;;2.38;1.00;;;18.10;64.80;;;;;;5015433;28;20029;-70
2021/05/10 02:13:07;;;;;;;1.00;0.80;;;18.00;64.80;;;;;;5015031;28;20040;-70
2021/05/10 02:15:40;;;;;;;1.98;0.80;;;18.00;64.80;;;;;;5015121;28;20033;-70
2021/05/10 02:18:06;;;;;;;1.83;1.20;;;17.90;65.30;;;;;;5033029;28;20036;-70
2021/05/10 02:20:33;;;;;;;1.10;0.80;;;18.00;65.20;;;;;;5014818;28;20079;-70
2021/05/10 02:23:02;;;;;;;1.10;1.00;;;18.00;65.30;;;;;;5015666;28;20112;-70
2021/05/10 02:25:30;;;;;;;0.85;0.73;;;18.00;64.50;;;;;;5032655;28;20079;-70
2021/05/10 02:27:57;;;;;;;2.05;1.13;;;18.00;64.50;;;;;;5015473;28;20080;-70
2021/05/10 02:30:25;;;;;;;1.50;1.00;;;17.90;64.80;;;;;;5033050;28;20062;-70
2021/05/10 02:32:51;;;;;;;1.20;0.80;;;17.90;64.80;;;;;;5032420;28;20108;-69
2021/05/10 02:35:21;;;;;;;0.90;0.80;;;17.90;64.40;;;;;;5033011;28;20465;-70
2021/05/10 02:37:47;;;;;;;1.50;1.05;;;17.90;64.70;;;;;;5032682;28;20036;-70
2021/05/10 02:40:14;;;;;;;3.10;1.00;;;17.90;64.40;;;;;;5032915;28;20041;-70
2021/05/10 02:42:39;;;;;;;2.20;1.00;;;17.90;64.40;;;;;;5032570;28;20036;-70
2021/05/10 02:45:06;;;;;;;1.17;0.80;;;17.90;64.60;;;;;;5015117;28;20033;-70
2021/05/10 02:47:32;;;;;;;0.93;0.82;;;17.90;64.80;;;;;;5031999;28;20516;-71
2021/05/10 02:49:58;;;;;;;2.17;1.00;;;17.90;64.90;;;;;;5014894;28;20021;-70
2021/05/10 02:52:23;;;;;;;1.95;0.90;;;17.90;64.80;;;;;;5032793;28;20057;-70
2021/05/10 02:54:49;;;;;;;1.27;0.73;;;17.90;64.50;;;;;;5014355;28;20029;-70
2021/05/10 02:57:16;;;;;;;1.08;0.95;;;17.90;64.60;;;;;;5014873;28;20055;-70
2021/05/10 02:59:42;;;;;;;2.05;0.95;;;17.90;64.70;;;;;;5031770;28;20574;-70
2021/05/10 03:02:08;;;;;;;1.25;1.00;;;17.80;64.50;;;;;;5014912;28;20055;-70
2021/05/10 03:04:33;;;;;;;1.75;1.10;;;17.80;63.80;;;;;;5032026;28;20036;-70
2021/05/10 03:06:59;;;;;;;1.20;0.82;;;17.70;63.70;;;;;;5031345;28;20033;-70
2021/05/10 03:09:25;;;;;;;1.75;1.08;;;17.70;63.80;;;;;;5031180;28;20427;-70
2021/05/10 03:11:50;;;;;;;1.83;0.90;;;17.70;64.10;;;;;;5030565;28;20387;-70
2021/05/10 03:14:16;;;;;;;1.52;0.75;;;17.70;63.50;;;;;;5014909;28;20064;-70
2021/05/10 03:16:42;;;;;;;1.10;1.00;;;17.70;63.30;;;;;;5030345;28;20030;-70
2021/05/10 03:19:10;;;;;;;1.20;0.90;;;17.60;64.20;;;;;;5014752;28;20121;-70
2021/05/10 03:21:39;;;;;;;1.50;0.90;;;17.70;64.00;;;;;;5031882;28;20091;-70
2021/05/10 03:24:06;;;;;;;1.23;1.00;;;17.70;64.60;;;;;;5014792;28;20037;-70
2021/05/10 03:26:33;;;;;;;4.88;1.10;;;17.80;64.50;;;;;;5014646;28;20030;-70
2021/05/10 03:29:00;;;;;;;1.75;1.00;;;17.80;64.40;;;;;;5032368;28;20036;-70
2021/05/10 03:31:25;;;;;;;1.25;1.00;;;17.80;63.30;;;;;;5014622;28;20032;-70
2021/05/10 03:33:51;;;;;;;2.30;1.08;;;17.90;63.10;;;;;;5032041;28;20033;-70
2021/05/10 03:36:17;;;;;;;2.58;1.38;;;17.90;62.70;;;;;;5033320;28;20068;-70
2021/05/10 03:38:43;;;;;;;2.50;1.00;;;17.90;63.60;;;;;;5017983;28;20033;-70
2021/05/10 03:41:08;;;;;;;2.50;1.10;;;17.80;63.80;;;;;;5036336;28;20065;-70
2021/05/10 03:43:34;;;;;;;2.58;1.20;;;17.80;64.20;;;;;;5018445;28;20444;-70
2021/05/10 03:46:00;;;;;;;2.65;1.25;;;17.80;64.50;;;;;;5018288;28;20045;-70
2021/05/10 03:48:26;;;;;;;2.58;1.30;;;17.80;64.90;;;;;;5034754;28;20496;-69
2021/05/10 03:50:51;;;;;;;3.15;1.38;;;17.90;64.80;;;;;;5034137;28;20028;-70
2021/05/10 03:53:17;;;;;;;2.85;1.33;;;17.90;65.20;;;;;;5035787;28;20056;-70
2021/05/10 03:55:42;;;;;;;3.90;1.80;;;17.90;65.20;;;;;;5035666;28;20025;-70
2021/05/10 03:58:08;;;;;;;4.40;1.90;;;17.90;65.20;;;;;;5034574;28;20467;-70
2021/05/10 04:00:34;;;;;;;2.17;1.65;;;17.90;65.90;;;;;;5034626;28;20026;-70
2021/05/10 04:03:00;;;;;;;4.63;1.42;;;17.90;65.10;;;;;;5017500;28;20120;-70
2021/05/10 04:08:25;;;;;;;1.70;1.25;;;17.90;64.90;;;;;;5035143;28;20025;-70
2021/05/10 04:13:36;;;;;;;2.45;1.20;;;18.00;64.30;;;;;;5035783;28;20507;-69
2021/05/10 04:16:04;;;;;;;1.83;1.40;;;18.00;64.60;;;;;;5035787;28;20094;-70
2021/05/10 04:18:30;;;;;;;4.88;1.40;;;18.00;65.30;;;;;;5035564;28;20045;-72
2021/05/10 04:20:56;;;;;;;1.40;1.27;;;17.90;65.70;;;;;;5035007;28;20065;-71
2021/05/10 04:23:21;;;;;;;1.73;1.25;;;17.90;66.20;;;;;;5035497;28;20086;-70
2021/05/10 04:25:48;;;;;;;2.20;1.20;;;18.00;65.90;;;;;;5034529;28;20022;-70
2021/05/10 04:28:15;;;;;;;1.50;1.10;;;18.00;65.70;;;;;;5017784;28;20099;-71
2021/05/10 04:30:41;;;;;;;3.15;1.23;;;18.00;66.00;;;;;;5034708;28;20026;-70
2021/05/10 04:33:07;;;;;;;1.58;1.15;;;17.90;65.40;;;;;;5017612;28;20030;-69
2021/05/10 04:35:33;;;;;;;1.95;1.05;;;17.90;65.40;;;;;;5017544;28;20033;-70
2021/05/10 04:38:06;;;;;;;1.75;0.98;;;17.90;65.50;;;;;;5016780;28;20026;-70
2021/05/10 04:40:32;;;;;;;1.38;1.08;;;18.00;65.50;;;;;;5017472;28;20482;-70
2021/05/10 04:42:58;;;;;;;2.38;1.00;;;18.00;65.70;;;;;;5034277;28;20033;-70
2021/05/10 04:45:24;;;;;;;1.65;1.20;;;18.00;65.50;;;;;;5017041;28;20022;-70
2021/05/10 04:47:49;;;;;;;2.20;1.08;;;18.00;65.30;;;;;;5033755;28;20030;-70
2021/05/10 04:50:15;;;;;;;2.13;1.25;;;18.00;65.10;;;;;;5017202;28;20528;-70
2021/05/10 04:52:41;;;;;;;2.33;1.10;;;18.00;65.00;;;;;;5016703;28;20033;-70
2021/05/10 04:55:09;;;;;;;1.23;1.00;;;18.00;65.10;;;;;;5017127;28;20032;-70
2021/05/10 04:57:35;;;;;;;2.75;1.05;;;18.00;65.10;;;;;;5017075;28;20029;-70
2021/05/10 05:00:01;;;;;;;1.98;1.00;;;18.00;65.10;;;;;;5034241;28;20424;-70
2021/05/10 05:02:26;;;;;;;1.30;1.00;;;18.10;65.10;;;;;;5033563;28;20025;-70
2021/05/10 05:04:52;;;;;;;1.75;1.05;;;18.10;64.80;;;;;;5033865;28;20426;-70
2021/05/10 05:07:18;;;;;;;2.05;1.50;;;18.10;64.60;;;;;;5034745;28;20477;-70
2021/05/10 05:09:43;;;;;;;5.82;1.40;;;18.10;64.90;;;;;;5032770;28;20386;-70
2021/05/10 05:12:09;;;;;;;2.33;1.35;;;18.10;65.10;;;;;;5016769;28;20385;-70
2021/05/10 05:14:35;;;;;;;2.83;1.70;;;18.10;65.00;;;;;;5034518;28;20034;-70
2021/05/10 05:17:01;;;;;;;8.02;1.33;;;18.10;65.00;;;;;;5016144;28;20042;-70
2021/05/10 05:19:26;;;;;;;1.80;1.20;;;18.20;64.90;;;;;;5034385;28;20034;-70
2021/05/10 05:21:52;;;;;;;3.28;1.45;;;18.20;64.80;;;;;;5034041;28;20040;-70
2021/05/10 05:24:18;;;;;;;3.17;1.70;;;18.20;64.90;;;;;;5016495;28;20029;-70
2021/05/10 05:26:44;;;;;;;2.33;1.17;;;18.20;65.20;;;;;;5033447;28;20025;-70
2021/05/10 05:29:10;;;;;;;6.28;1.95;;;18.30;65.30;;;;;;5016379;28;20064;-69
2021/05/10 05:31:35;;;;;;;1.55;1.17;;;18.30;65.20;;;;;;5033865;28;20033;-70
2021/05/10 05:34:01;;;;;;;5.05;1.40;;;18.30;65.10;;;;;;5032960;28;20106;-70
2021/05/10 05:36:27;;;;;;;4.35;1.45;;;18.40;65.30;;;;;;5034231;28;20022;-70
2021/05/10 05:38:52;;;;;;;1.75;1.13;;;18.40;65.40;;;;;;5033237;28;20033;-70
2021/05/10 05:41:18;;;;;;;3.97;1.67;;;18.50;65.20;;;;;;5034020;28;20466;-70
2021/05/10 05:43:45;;;;;;;3.38;1.30;;;18.50;65.20;;;;;;5033155;28;20021;-70
2021/05/10 05:46:15;;;;;;;1.92;1.58;;;18.50;65.60;;;;;;5015949;28;20054;-70
2021/05/10 05:48:41;;;;;;;4.32;1.55;;;18.50;65.70;;;;;;5016345;28;20029;-70
2021/05/10 05:51:10;;;;;;;2.08;1.30;;;18.60;65.80;;;;;;5015451;28;20033;-70
2021/05/10 05:53:36;;;;;;;3.08;1.45;;;18.60;65.60;;;;;;5033745;28;20026;-70
2021/05/10 05:56:02;;;;;;;3.40;1.40;;;18.60;65.30;;;;;;5015436;28;20615;-70
2021/05/10 05:58:28;;;;;;;3.22;1.30;;;18.60;65.40;;;;;;5015420;28;20033;-70
2021/05/10 06:00:53;;;;;;;2.05;1.55;;;18.60;65.60;;;;;;5014854;28;20029;-70
2021/05/10 06:03:20;;;;;;;1.70;1.30;;;18.60;65.90;;;;;;5033732;28;20446;-70
2021/05/10 06:05:46;;;;;;;3.13;1.70;;;18.60;66.10;;;;;;5014916;28;20081;-70
2021/05/10 06:08:14;;;;;;;1.48;1.27;;;18.60;66.30;;;;;;5033646;28;20021;-70
2021/05/10 06:10:40;;;;;;;2.08;1.40;;;18.60;66.30;;;;;;5033379;28;20087;-70
2021/05/10 06:13:06;;;;;;;1.95;1.27;;;18.70;65.90;;;;;;5015164;28;20025;-70
2021/05/10 06:15:32;;;;;;;2.47;1.52;;;18.70;66.00;;;;;;5033447;28;20040;-70
2021/05/10 06:17:57;;;;;;;2.13;1.48;;;18.70;65.80;;;;;;5015053;28;20120;-70
2021/05/10 06:20:25;;;;;;;2.60;1.25;;;18.80;65.50;;;;;;5015484;28;20064;-70
2021/05/10 06:22:50;;;;;;;2.10;1.35;;;18.80;65.20;;;;;;5032861;28;20051;-69
2021/05/10 06:25:16;;;;;;;1.77;1.25;;;18.80;65.00;;;;;;5015358;28;20025;-69
2021/05/10 06:27:42;;;;;;;2.47;1.40;;;18.90;65.10;;;;;;5031981;28;20065;-69
2021/05/10 06:30:10;;;;;;;2.05;1.00;;;18.90;64.60;;;;;;5032408;28;20477;-69
2021/05/10 06:32:36;;;;;;;6.68;1.30;;;19.00;64.40;;;;;;5015299;28;20145;-69
2021/05/10 06:35:03;;;;;;;4.10;1.30;;;19.00;63.40;;;;;;5032421;28;20083;-69
2021/05/10 06:37:29;;;;;;;1.77;1.25;;;19.00;63.00;;;;;;5015292;28;20078;-69
2021/05/10 06:39:56;;;;;;;4.00;1.85;;;19.10;62.90;;;;;;5032374;28;20025;-69
2021/05/10 06:42:23;;;;;;;1.58;1.10;;;19.10;62.70;;;;;;5032903;28;20025;-69
2021/05/10 06:44:48;;;;;;;2.35;1.00;;;19.10;62.50;;;;;;5014545;28;20478;-69
2021/05/10 06:47:14;;;;;;;2.92;1.20;;;19.10;62.20;;;;;;5014463;28;20084;-69
2021/05/10 06:49:40;;;;;;;2.83;1.08;;;19.20;62.10;;;;;;5015139;28;20030;-69
2021/05/10 06:52:05;;;;;;;3.70;1.27;;;19.30;61.40;;;;;;5014376;28;20160;-69
2021/05/10 06:54:31;;;;;;;2.55;1.10;;;19.30;61.70;;;;;;5015160;28;20037;-69
2021/05/10 06:56:56;;;;;;;1.88;1.05;;;19.40;61.00;;;;;;5030815;28;20538;-69
2021/05/10 06:59:22;;;;;;;2.58;0.93;;;19.40;60.90;;;;;;5014633;28;20036;-69
2021/05/10 07:01:48;;;;;;;2.38;1.10;;;19.40;60.70;;;;;;5032041;28;20034;-69
2021/05/10 07:04:14;;;;;;;2.85;1.10;;;19.50;60.90;;;;;;5014861;28;20060;-69
2021/05/10 07:06:42;;;;;;;4.22;1.15;;;19.50;60.50;;;;;;5014565;28;20026;-69
2021/05/10 07:09:08;;;;;;;2.88;1.13;;;19.50;60.90;;;;;;5031879;28;20026;-69
2021/05/10 07:11:33;;;;;;;3.03;0.80;;;19.60;61.00;;;;;;5014330;28;20060;-69
2021/05/10 07:14:00;;;;;;;2.83;1.17;;;19.60;60.40;;;;;;5031921;28;20084;-69
2021/05/10 07:16:25;;;;;;;3.08;1.08;;;19.60;59.90;;;;;;5014736;28;20025;-68
2021/05/10 07:18:52;;;;;;;1.65;0.88;;;19.60;59.70;;;;;;5014243;28;20117;-69
2021/05/10 07:21:17;;;;;;;2.22;1.08;;;19.60;60.50;;;;;;5014702;28;20033;-69
2021/05/10 07:23:43;;;;;;;1.92;1.00;;;19.60;60.40;;;;;;5014752;28;20032;-69
2021/05/10 07:26:09;;;;;;;2.33;0.98;;;19.60;61.10;;;;;;5014111;28;20025;-69
2021/05/10 07:28:35;;;;;;;3.28;0.95;;;19.70;60.60;;;;;;5014901;28;20060;-69
2021/05/10 07:31:00;;;;;;;2.63;1.20;;;19.70;60.40;;;;;;5031660;28;20033;-69
2021/05/10 07:33:26;;;;;;;1.17;0.90;;;19.90;60.60;;;;;;5032288;28;20440;-69
2021/05/10 07:35:51;;;;;;;3.05;1.15;;;19.90;59.70;;;;;;5030441;28;20458;-69
2021/05/10 07:38:17;;;;;;;3.42;1.17;;;20.00;60.00;;;;;;5014598;28;20485;-69
2021/05/10 07:40:43;;;;;;;2.85;0.95;;;20.10;59.90;;;;;;5014603;28;20060;-69
2021/05/10 07:43:08;;;;;;;1.40;1.10;;;20.20;60.10;;;;;;5031410;28;20568;-69
2021/05/10 07:45:35;;;;;;;2.40;1.13;;;20.10;59.50;;;;;;5014271;28;20026;-69
2021/05/10 07:48:01;;;;;;;3.38;1.17;;;20.10;60.00;;;;;;5031660;28;20036;-69
2021/05/10 07:50:29;;;;;;;2.60;1.10;;;20.10;60.00;;;;;;5032156;28;20026;-69
2021/05/10 07:52:56;;;;;;;1.00;0.90;;;20.20;60.30;;;;;;5030256;28;20080;-69
2021/05/10 07:55:22;;;;;;;1.20;0.82;;;20.30;59.30;;;;;;5014737;28;20032;-69
2021/05/10 07:57:48;;;;;;;3.35;0.70;;;20.20;59.40;;;;;;5032126;28;20029;-69
2021/05/10 08:00:19;;;;;;;3.28;0.80;;;20.20;59.80;;;;;;5014024;28;20029;-69
2021/05/10 08:02:47;;;;;;;1.88;0.82;;;20.10;59.80;;;;;;5014387;28;20486;-69
2021/05/10 08:05:13;;;;;;;2.35;1.10;;;20.10;59.70;;;;;;5031471;28;20032;-69
2021/05/10 08:07:40;;;;;;;1.25;0.70;;;20.00;59.70;;;;;;5014265;28;20037;-69
2021/05/10 08:10:07;;;;;;;1.38;0.77;;;20.00;59.80;;;;;;5013590;28;20032;-69
2021/05/10 08:12:33;;;;;;;2.65;0.90;;;19.90;60.20;;;;;;5032311;28;20048;-69
2021/05/10 08:14:59;;;;;;;2.00;0.60;;;19.90;60.20;;;;;;5013627;28;20032;-69
2021/05/10 08:17:26;;;;;;;0.52;0.50;;;19.90;59.80;;;;;;5031686;28;20030;-69
2021/05/10 08:19:52;;;;;;;2.90;0.57;;;20.00;59.60;;;;;;5031324;28;20505;-70
2021/05/10 08:22:17;;;;;;;3.10;0.50;;;20.10;59.10;;;;;;5014822;28;20029;-69
2021/05/10 08:24:43;;;;;;;3.22;0.60;;;20.00;58.20;;;;;;5017916;28;20488;-69
2021/05/10 08:27:09;;;;;;;1.98;0.57;;;20.00;58.40;;;;;;5017134;28;20037;-69
2021/05/10 08:29:35;;;;;;;0.47;0.40;;;19.90;58.80;;;;;;5017636;28;20092;-69
2021/05/10 08:32:01;;;;;;;2.38;0.70;;;19.90;59.20;;;;;;5016912;28;20033;-69
2021/05/10 08:34:27;;;;;;;0.90;0.75;;;19.90;58.80;;;;;;5017571;28;20462;-69
2021/05/10 08:36:54;;;;;;;1.42;0.50;;;19.80;58.00;;;;;;5034680;28;20025;-69
2021/05/10 08:39:20;;;;;;;0.32;0.30;;;19.70;57.90;;;;;;5035214;28;20021;-69
2021/05/10 08:41:46;;;;;;;0.98;0.40;;;19.60;58.30;;;;;;5017293;28;20040;-69
2021/05/10 08:44:12;;;;;;;0.57;0.22;;;19.60;58.50;;;;;;5016488;28;20249;-69
2021/05/10 08:46:40;;;;;;;1.15;0.32;;;19.60;58.20;;;;;;5034597;28;20128;-69
2021/05/10 08:49:07;;;;;;;0.80;0.20;;;19.50;57.80;;;;;;5034362;28;20025;-69
2021/05/10 08:51:34;;;;;;;0.85;0.40;;;19.60;58.10;;;;;;5017180;28;20486;-69
2021/05/10 08:54:00;;;;;;;0.80;0.30;;;19.60;57.80;;;;;;5034282;28;20033;-69
2021/05/10 08:56:26;;;;;;;0.93;0.30;;;19.70;57.60;;;;;;5017378;28;20026;-69
2021/05/10 08:58:52;;;;;;;1.95;0.32;;;19.80;57.30;;;;;;5035130;28;20025;-69
2021/05/10 09:01:21;;;;;;;1.52;0.30;;;19.90;57.10;;;;;;5016436;28;20497;-69
2021/05/10 09:03:49;;;;;;;2.08;0.30;;;20.00;56.70;;;;;;5017138;28;20061;-69
2021/05/10 09:06:37;;;;;;;0.77;0.30;;;20.00;56.70;;;;;;5016323;28;20087;-69
2021/05/10 09:09:08;;;;;;;1.50;0.20;;;20.00;56.30;;;;;;5015861;28;20033;-69
2021/05/10 09:11:35;;;;;;;2.30;0.28;;;20.10;56.70;;;;;;5033170;28;20030;-69
2021/05/10 09:14:01;;;;;;;0.20;0.20;;;20.00;56.70;;;;;;5016307;28;20087;-69
2021/05/10 09:16:28;;;;;;;0.30;0.20;;;20.00;57.00;;;;;;5016862;28;20040;-69
2021/05/10 09:19:02;;;;;;;0.70;0.30;;;20.00;57.20;;;;;;5034522;28;20466;-69
2021/05/10 09:21:30;;;;;;;0.80;0.10;;;19.90;56.90;;;;;;5016989;28;20036;-69
2021/05/10 09:23:57;;;;;;;0.30;0.20;;;19.90;56.80;;;;;;5015963;28;20021;-69
2021/05/10 09:26:27;;;;;;;1.15;0.20;;;19.90;56.30;;;;;;5016722;28;20030;-69
2021/05/10 09:28:52;;;;;;;0.38;0.28;;;19.90;56.50;;;;;;5016532;28;20112;-69
2021/05/10 09:31:18;;;;;;;0.55;0.20;;;20.00;56.60;;;;;;5033559;28;20125;-69
2021/05/10 09:33:46;;;;;;;1.70;0.10;;;19.90;56.60;;;;;;5033846;28;20095;-69
2021/05/10 09:36:31;;;;;;;0.63;0.10;;;20.00;56.60;;;;;;5033510;28;20021;-69
2021/05/10 09:38:57;;;;;;;0.57;0.17;;;20.00;56.70;;;;;;5033443;28;20577;-69
2021/05/10 09:41:23;;;;;;;1.17;0.20;;;20.10;57.20;;;;;;5016275;28;20049;-69
2021/05/10 09:44:05;;;;;;;0.50;0.38;;;20.20;56.50;;;;;;5034016;28;20026;-69
2021/05/10 09:46:42;;;;;;;0.45;0.20;;;20.20;56.70;;;;;;5015936;28;20050;-69
2021/05/10 09:49:08;;;;;;;0.13;0.10;;;20.10;56.60;;;;;;5033380;28;20079;-69
2021/05/10 09:51:35;;;;;;;1.42;0.13;;;20.20;57.00;;;;;;5033806;28;20064;-69
2021/05/10 09:54:13;;;;;;;0.10;0.10;;;20.10;56.30;;;;;;5015490;28;20099;-69
2021/05/10 09:56:40;;;;;;;0.10;0.10;;;20.10;56.30;;;;;;5033851;28;20022;-69
2021/05/10 09:59:14;;;;;;;1.90;0.38;;;20.20;56.30;;;;;;5015423;28;20462;-69
2021/05/10 10:01:46;;;;;;;0.32;0.20;;;20.20;56.20;;;;;;5033795;28;20026;-69
2021/05/10 10:04:14;;;;;;;0.22;0.10;;;20.30;56.10;;;;;;5015325;28;20082;-69
2021/05/10 10:06:40;;;;;;;0.20;0.20;;;20.30;56.60;;;;;;5015854;28;20029;-69
2021/05/10 10:09:07;;;;;;;0.30;0.20;;;20.20;55.60;;;;;;5015145;28;20120;-69
2021/05/10 10:11:33;;;;;;;0.57;0.10;;;20.20;56.00;;;;;;5015912;28;20382;-69
2021/05/10 10:14:00;;;;;;;0.13;0.10;;;20.30;55.10;;;;;;5015039;28;20037;-70
2021/05/10 10:16:28;;;;;;;1.23;0.10;;;20.30;55.40;;;;;;5033138;28;20034;-69
2021/05/10 10:18:59;;;;;;;1.33;0.20;;;20.30;55.30;;;;;;5015614;28;20508;-70
2021/05/10 10:21:24;;;;;;;1.33;0.20;;;20.40;55.60;;;;;;5015763;28;20034;-69
2021/05/10 10:23:55;;;;;;;1.65;0.20;;;20.50;55.20;;;;;;5033267;28;20051;-70
2021/05/10 10:26:22;;;;;;;0.35;0.10;;;20.50;54.80;;;;;;5014945;28;20025;-70
2021/05/10 10:28:49;;;;;;;0.38;0.10;;;20.60;54.60;;;;;;5033228;28;20025;-70
2021/05/10 10:31:23;;;;;;;2.63;0.40;;;20.60;54.10;;;;;;5032222;28;20112;-70
2021/05/10 10:34:06;;;;;;;0.50;0.10;;;20.60;53.80;;;;;;5015610;28;20061;-69
2021/05/10 10:37:00;;;;;;;0.47;0.20;;;20.60;54.10;;;;;;5015130;28;20021;-70
2021/05/10 10:39:27;;;;;;;0.75;0.17;;;20.60;54.40;;;;;;5015632;28;20033;-69
2021/05/10 10:41:57;;;;;;;0.85;0.10;;;20.60;54.00;;;;;;5015154;28;20544;-69
2021/05/10 10:44:39;;;;;;;0.20;0.10;;;20.60;54.10;;;;;;5014580;28;20474;-69
2021/05/10 10:47:05;;;;;;;;;;;20.60;54.60;;;;;;5014506;28;20046;-70
2021/05/10 10:49:35;;;;;;;0.40;0.20;;;20.60;54.80;;;;;;5033146;28;19909;-69
2021/05/10 10:52:03;;;;;;;0.85;0.20;;;20.60;55.10;;;;;;5032169;28;20474;-71
2021/05/10 10:54:30;;;;;;;0.50;0.10;;;20.40;54.20;;;;;;5015057;28;20433;-69
2021/05/10 10:56:59;;;;;;;0.10;0.10;;;20.40;54.60;;;;;;5032764;28;20029;-70
2021/05/10 10:59:38;;;;;;;0.85;0.10;;;20.40;55.00;;;;;;5014457;28;20032;-69
2021/05/10 11:02:18;;;;;;;1.08;0.20;;;20.40;54.30;;;;;;5032152;28;20040;-70
2021/05/10 11:04:47;;;;;;;0.20;0.10;;;20.50;55.60;;;;;;5032696;28;20026;-69
2021/05/10 11:07:13;;;;;;;1.08;0.10;;;20.60;55.00;;;;;;5032354;28;20036;-70
2021/05/10 11:09:49;;;;;;;0.63;0.10;;;20.70;54.70;;;;;;5032730;28;20025;-70
2021/05/10 11:12:47;;;;;;;0.35;0.10;;;20.70;54.60;;;;;;5031821;28;20033;-70
2021/05/10 11:15:35;;;;;;;0.75;0.10;;;20.70;54.30;;;;;;5031922;28;20056;-70
2021/05/10 11:18:05;;;;;;;0.10;0.10;;;20.50;54.60;;;;;;5014810;28;20068;-69
2021/05/10 11:20:46;;;;;;;0.20;0.10;;;20.50;54.90;;;;;;5015053;28;20432;-69
2021/05/10 11:23:24;;;;;;;0.40;0.20;;;20.40;54.30;;;;;;5031895;28;20475;-70
2021/05/10 11:25:54;;;;;;;0.08;0.00;;;20.20;54.40;;;;;;5014807;28;20036;-70
2021/05/10 11:28:27;;;;;;;0.10;0.10;;;20.10;54.70;;;;;;5030493;28;20027;-70
2021/05/10 11:31:06;;;;;;;0.40;0.10;;;20.00;55.10;;;;;;5032245;28;20064;-69
2021/05/10 11:33:54;;;;;;;0.55;0.20;;;19.90;55.30;;;;;;5032305;28;20029;-69
2021/05/10 11:36:21;;;;;;;0.17;0.10;;;19.90;56.30;;;;;;5031929;28;20128;-69
2021/05/10 11:39:11;;;;;;;1.02;0.20;;;19.90;56.50;;;;;;5014501;28;20037;-69
2021/05/10 11:41:44;;;;;;;0.27;0.10;;;19.90;56.10;;;;;;5032302;28;20026;-69
2021/05/10 11:44:20;;;;;;;0.10;0.10;;;19.80;56.10;;;;;;5031643;28;20036;-69
2021/05/10 11:46:48;;;;;;;0.22;0.00;;;19.90;56.40;;;;;;5031795;28;20483;-69
2021/05/10 11:49:32;;;;;;;0.30;0.10;;;19.80;55.80;;;;;;5031598;28;20029;-69
2021/05/10 11:52:08;;;;;;;0.20;0.10;;;19.70;56.20;;;;;;5032203;28;20022;-69
2021/05/10 11:54:35;;;;;;;0.55;0.20;;;19.70;56.20;;;;;;5032158;28;20087;-69
2021/05/10 11:57:04;;;;;;;0.28;0.10;;;19.70;55.80;;;;;;5033673;28;20021;-70
2021/05/10 12:00:01;;;;;;;0.17;0.10;;;19.60;55.80;;;;;;5035935;28;20028;-69
2021/05/10 12:02:33;;;;;;;0.10;0.10;;;19.50;55.90;;;;;;5034143;28;20250;-69
2021/05/10 12:05:00;;;;;;;1.25;0.10;;;19.40;56.40;;;;;;5018192;28;20112;-69
2021/05/10 12:07:30;;;;;;;0.22;0.10;;;19.30;56.50;;;;;;5035283;28;20107;-69
2021/05/10 12:10:01;;;;;;;0.00;0.00;;;19.20;57.00;;;;;;5018013;28;20036;-69
2021/05/10 12:12:28;;;;;;;;;;;19.20;57.50;;;;;;5017800;28;20040;-69
2021/05/10 12:14:57;;;;;;;0.00;0.00;;;19.20;58.10;;;;;;5035719;28;19971;-69
2021/05/10 12:17:24;;;;;;;0.05;0.00;;;19.00;58.80;;;;;;5034833;28;20390;-70
2021/05/10 12:19:55;;;;;;;0.00;0.00;;;19.00;58.80;;;;;;5018141;28;20045;-69
2021/05/10 12:22:23;;;;;;;1.05;0.20;;;18.90;60.10;;;;;;5035126;28;20036;-69
2021/05/10 12:25:10;;;;;;;0.55;0.10;;;18.90;60.50;;;;;;5034397;28;20386;-70
2021/05/10 12:27:40;;;;;;;0.10;0.00;;;19.00;62.10;;;;;;5004919;28;20033;-69
2021/05/10 12:30:10;;;;;;;0.05;0.00;;;18.90;62.00;;;;;;5017092;28;20124;-73
2021/05/10 12:32:36;;;;;;;0.13;0.10;;;18.90;63.70;;;;;;5017725;28;20033;-69
2021/05/10 12:35:03;;;;;;;0.35;0.20;;;18.90;63.20;;;;;;5035337;28;20029;-69
2021/05/10 12:37:29;;;;;;;0.05;0.00;;;19.00;62.50;;;;;;5016992;28;20026;-70
2021/05/10 12:40:07;;;;;;;0.10;0.10;;;19.00;62.40;;;;;;5017523;28;20441;-69
2021/05/10 12:42:33;;;;;;;0.13;0.10;;;19.10;62.50;;;;;;5017474;28;20041;-69
2021/05/10 12:45:06;;;;;;;0.10;0.10;;;19.10;61.40;;;;;;5017288;28;20459;-70
2021/05/10 12:47:45;;;;;;;1.75;0.10;;;19.10;63.60;;;;;;5013805;28;20054;-69
2021/05/10 12:50:31;;;;;;;0.20;0.20;;;19.00;62.60;;;;;;5029948;28;20375;-70
2021/05/10 12:52:58;;;;;;;0.10;0.10;;;19.00;62.50;;;;;;5014128;28;20030;-69
2021/05/10 12:55:24;;;;;;;0.03;0.03;;;19.00;62.80;;;;;;5013341;28;20033;-69
2021/05/10 12:57:50;;;;;;;0.47;0.00;;;19.00;62.40;;;;;;5013525;28;20437;-69
2021/05/10 13:00:30;;;;;;;0.05;0.00;;;18.90;62.00;;;;;;5013323;28;20036;-69